sensor_id;sensor_type;location;lat;lon;timestamp;pressure;altitude;pressure_sealevel;temperature;humidity
54248;BME280;40161;39.768;2.722;2024-02-26T00:02:14;99897.19;;;17.39;56.45
54248;BME280;40161;39.768;2.722;2024-02-26T00:04:40;99907.50;;;17.38;56.33
54248;BME280;40161;39.768;2.722;2024-02-26T00:07:05;99910.38;;;17.35;56.49
54248;BME280;40161;39.768;2.722;2024-02-26T00:09:32;99882.53;;;17.22;56.65
54248;BME280;40161;39.768;2.722;2024-02-26T00:12:01;99894.50;;;17.51;55.67
54248;BME280;40161;39.768;2.722;2024-02-26T00:14:27;99883.59;;;17.28;56.47
54248;BME280;40161;39.768;2.722;2024-02-26T00:16:52;99871.34;;;17.25;56.36
54248;BME280;40161;39.768;2.722;2024-02-26T00:19:18;99905.75;;;17.61;55.26
54248;BME280;40161;39.768;2.722;2024-02-26T00:21:43;99886.50;;;17.37;56.70
54248;BME280;40161;39.768;2.722;2024-02-26T00:24:09;99896.41;;;17.54;55.08
54248;BME280;40161;39.768;2.722;2024-02-26T00:26:35;99885.41;;;17.35;55.35
54248;BME280;40161;39.768;2.722;2024-02-26T00:29:00;99851.50;;;17.27;55.48
54248;BME280;40161;39.768;2.722;2024-02-26T00:31:26;99859.03;;;17.26;55.60
54248;BME280;40161;39.768;2.722;2024-02-26T00:33:52;99851.16;;;17.08;56.60
54248;BME280;40161;39.768;2.722;2024-02-26T00:36:18;99860.88;;;17.33;55.59
54248;BME280;40161;39.768;2.722;2024-02-26T00:38:44;99882.97;;;17.53;55.47
54248;BME280;40161;39.768;2.722;2024-02-26T00:41:11;99796.34;;;17.00;56.14
54248;BME280;40161;39.768;2.722;2024-02-26T00:43:37;99860.78;;;17.37;55.88
54248;BME280;40161;39.768;2.722;2024-02-26T00:46:04;99830.28;;;17.37;55.84
54248;BME280;40161;39.768;2.722;2024-02-26T00:48:30;99879.44;;;17.52;54.41
54248;BME280;40161;39.768;2.722;2024-02-26T00:50:55;99865.97;;;17.67;54.37
54248;BME280;40161;39.768;2.722;2024-02-26T00:53:21;99848.81;;;17.72;53.87
54248;BME280;40161;39.768;2.722;2024-02-26T00:55:47;99816.81;;;17.51;52.94
54248;BME280;40161;39.768;2.722;2024-02-26T00:58:13;99821.94;;;17.53;53.67
54248;BME280;40161;39.768;2.722;2024-02-26T01:00:38;99837.38;;;17.54;53.26
54248;BME280;40161;39.768;2.722;2024-02-26T01:03:04;99850.38;;;17.73;54.18
54248;BME280;40161;39.768;2.722;2024-02-26T01:05:30;99876.81;;;17.62;54.56
54248;BME280;40161;39.768;2.722;2024-02-26T01:07:55;99871.25;;;17.62;55.59
54248;BME280;40161;39.768;2.722;2024-02-26T01:10:21;99896.84;;;17.69;55.22
54248;BME280;40161;39.768;2.722;2024-02-26T01:12:46;99876.97;;;17.71;55.80
54248;BME280;40161;39.768;2.722;2024-02-26T01:15:13;99854.69;;;17.58;55.50
54248;BME280;40161;39.768;2.722;2024-02-26T01:17:38;99805.00;;;17.35;55.85
54248;BME280;40161;39.768;2.722;2024-02-26T01:20:05;99832.09;;;17.60;55.72
54248;BME280;40161;39.768;2.722;2024-02-26T01:22:30;99811.03;;;17.13;56.14
54248;BME280;40161;39.768;2.722;2024-02-26T01:24:56;99849.41;;;17.47;56.33
54248;BME280;40161;39.768;2.722;2024-02-26T01:27:22;99825.00;;;17.42;55.62
54248;BME280;40161;39.768;2.722;2024-02-26T01:29:52;99817.38;;;17.30;56.10
54248;BME280;40161;39.768;2.722;2024-02-26T01:32:17;99837.28;;;17.58;55.94
54248;BME280;40161;39.768;2.722;2024-02-26T01:34:43;99816.22;;;17.60;55.18
54248;BME280;40161;39.768;2.722;2024-02-26T01:37:09;99812.09;;;17.52;56.13
54248;BME280;40161;39.768;2.722;2024-02-26T01:39:34;99818.31;;;17.56;55.49
54248;BME280;40161;39.768;2.722;2024-02-26T01:42:01;99826.19;;;17.58;56.12
54248;BME280;40161;39.768;2.722;2024-02-26T01:44:27;99788.44;;;17.31;56.24
54248;BME280;40161;39.768;2.722;2024-02-26T01:46:53;99816.66;;;17.59;56.16
54248;BME280;40161;39.768;2.722;2024-02-26T01:49:19;99842.66;;;17.65;56.27
54248;BME280;40161;39.768;2.722;2024-02-26T01:51:45;99811.53;;;17.57;56.37
54248;BME280;40161;39.768;2.722;2024-02-26T01:54:11;99800.19;;;17.51;56.25
54248;BME280;40161;39.768;2.722;2024-02-26T01:56:38;99839.19;;;17.61;56.52
54248;BME280;40161;39.768;2.722;2024-02-26T01:59:05;99851.50;;;17.43;57.65
54248;BME280;40161;39.768;2.722;2024-02-26T02:01:31;99832.41;;;17.62;57.18
54248;BME280;40161;39.768;2.722;2024-02-26T02:03:59;99835.38;;;17.54;57.86
54248;BME280;40161;39.768;2.722;2024-02-26T02:06:25;99808.97;;;17.33;57.85
54248;BME280;40161;39.768;2.722;2024-02-26T02:08:51;99822.03;;;17.49;58.25
54248;BME280;40161;39.768;2.722;2024-02-26T02:11:17;99807.84;;;17.31;57.69
54248;BME280;40161;39.768;2.722;2024-02-26T02:13:42;99829.13;;;17.34;58.57
54248;BME280;40161;39.768;2.722;2024-02-26T02:16:08;99831.13;;;17.50;58.29
54248;BME280;40161;39.768;2.722;2024-02-26T02:18:34;99799.94;;;17.46;58.43
54248;BME280;40161;39.768;2.722;2024-02-26T02:21:00;99791.31;;;17.27;58.85
54248;BME280;40161;39.768;2.722;2024-02-26T02:23:26;99806.63;;;17.32;59.01
54248;BME280;40161;39.768;2.722;2024-02-26T02:25:52;99801.59;;;17.43;58.21
54248;BME280;40161;39.768;2.722;2024-02-26T02:28:18;99783.06;;;17.24;59.09
54248;BME280;40161;39.768;2.722;2024-02-26T02:30:44;99778.31;;;17.08;59.29
54248;BME280;40161;39.768;2.722;2024-02-26T02:33:10;99789.03;;;17.22;59.69
54248;BME280;40161;39.768;2.722;2024-02-26T02:35:37;99816.34;;;17.07;59.71
54248;BME280;40161;39.768;2.722;2024-02-26T02:38:03;99822.13;;;17.29;59.71
54248;BME280;40161;39.768;2.722;2024-02-26T02:40:29;99784.34;;;17.03;60.09
54248;BME280;40161;39.768;2.722;2024-02-26T02:42:54;99806.63;;;17.16;59.55
54248;BME280;40161;39.768;2.722;2024-02-26T02:45:20;99816.84;;;17.19;60.30
54248;BME280;40161;39.768;2.722;2024-02-26T02:47:46;99780.47;;;17.00;61.06
54248;BME280;40161;39.768;2.722;2024-02-26T02:50:11;99788.72;;;17.04;60.87
54248;BME280;40161;39.768;2.722;2024-02-26T02:52:37;99814.09;;;17.19;61.85
54248;BME280;40161;39.768;2.722;2024-02-26T02:55:02;99808.97;;;17.17;61.89
54248;BME280;40161;39.768;2.722;2024-02-26T02:57:30;99826.81;;;17.32;62.31
54248;BME280;40161;39.768;2.722;2024-02-26T02:59:55;99790.53;;;17.11;62.30
54248;BME280;40161;39.768;2.722;2024-02-26T03:02:21;99814.25;;;17.28;62.51
54248;BME280;40161;39.768;2.722;2024-02-26T03:04:47;99784.97;;;17.11;62.68
54248;BME280;40161;39.768;2.722;2024-02-26T03:07:13;99814.53;;;17.17;62.40
54248;BME280;40161;39.768;2.722;2024-02-26T03:09:39;99747.53;;;17.19;62.15
54248;BME280;40161;39.768;2.722;2024-02-26T03:12:04;99792.16;;;17.24;62.61
54248;BME280;40161;39.768;2.722;2024-02-26T03:14:30;99768.22;;;17.30;61.07
54248;BME280;40161;39.768;2.722;2024-02-26T03:16:56;99719.59;;;16.97;61.83
54248;BME280;40161;39.768;2.722;2024-02-26T03:19:21;99772.84;;;17.21;62.56
54248;BME280;40161;39.768;2.722;2024-02-26T03:21:47;99795.63;;;17.12;62.49
54248;BME280;40161;39.768;2.722;2024-02-26T03:24:13;99784.28;;;17.23;62.10
54248;BME280;40161;39.768;2.722;2024-02-26T03:26:39;99795.28;;;17.26;62.12
54248;BME280;40161;39.768;2.722;2024-02-26T03:29:05;99761.13;;;17.13;62.18
54248;BME280;40161;39.768;2.722;2024-02-26T03:31:31;99726.03;;;16.74;63.23
54248;BME280;40161;39.768;2.722;2024-02-26T03:33:57;99763.91;;;17.13;62.83
54248;BME280;40161;39.768;2.722;2024-02-26T03:36:22;99740.28;;;16.76;62.24
54248;BME280;40161;39.768;2.722;2024-02-26T03:38:48;99760.91;;;17.07;62.47
54248;BME280;40161;39.768;2.722;2024-02-26T03:41:14;99755.19;;;17.15;61.19
54248;BME280;40161;39.768;2.722;2024-02-26T03:43:40;99776.81;;;17.20;62.03
54248;BME280;40161;39.768;2.722;2024-02-26T03:46:09;99748.69;;;17.21;61.21
54248;BME280;40161;39.768;2.722;2024-02-26T03:48:36;99717.41;;;17.04;61.70
54248;BME280;40161;39.768;2.722;2024-02-26T03:51:03;99726.50;;;17.05;61.68
54248;BME280;40161;39.768;2.722;2024-02-26T03:53:29;99737.72;;;17.30;61.24
54248;BME280;40161;39.768;2.722;2024-02-26T03:55:54;99740.72;;;17.07;61.19
54248;BME280;40161;39.768;2.722;2024-02-26T03:58:20;99737.72;;;17.30;60.89
54248;BME280;40161;39.768;2.722;2024-02-26T04:00:46;99692.47;;;16.88;60.86
54248;BME280;40161;39.768;2.722;2024-02-26T04:03:13;99718.38;;;17.14;61.41
54248;BME280;40161;39.768;2.722;2024-02-26T04:05:39;99635.34;;;16.78;61.03
54248;BME280;40161;39.768;2.722;2024-02-26T04:08:05;99707.19;;;17.18;61.05
54248;BME280;40161;39.768;2.722;2024-02-26T04:10:32;99716.88;;;17.26;60.98
54248;BME280;40161;39.768;2.722;2024-02-26T04:13:00;99673.56;;;17.16;61.23
54248;BME280;40161;39.768;2.722;2024-02-26T04:15:26;99648.63;;;17.16;60.87
54248;BME280;40161;39.768;2.722;2024-02-26T04:17:51;99672.84;;;17.28;59.88
54248;BME280;40161;39.768;2.722;2024-02-26T04:20:17;99678.03;;;17.26;61.09
54248;BME280;40161;39.768;2.722;2024-02-26T04:22:43;99699.53;;;17.22;61.77
54248;BME280;40161;39.768;2.722;2024-02-26T04:25:09;99707.41;;;17.23;62.31
54248;BME280;40161;39.768;2.722;2024-02-26T04:27:34;99698.69;;;17.08;61.99
54248;BME280;40161;39.768;2.722;2024-02-26T04:30:00;99728.75;;;17.10;62.16
54248;BME280;40161;39.768;2.722;2024-02-26T04:32:25;99700.63;;;16.95;62.65
54248;BME280;40161;39.768;2.722;2024-02-26T04:34:51;99672.91;;;16.79;63.11
54248;BME280;40161;39.768;2.722;2024-02-26T04:37:17;99683.75;;;16.90;63.28
54248;BME280;40161;39.768;2.722;2024-02-26T04:39:43;99682.44;;;16.78;63.48
54248;BME280;40161;39.768;2.722;2024-02-26T04:42:08;99737.16;;;17.06;63.45
54248;BME280;40161;39.768;2.722;2024-02-26T04:44:34;99715.25;;;16.96;63.95
54248;BME280;40161;39.768;2.722;2024-02-26T04:47:00;99714.28;;;17.02;63.91
54248;BME280;40161;39.768;2.722;2024-02-26T04:49:27;99691.72;;;16.88;64.29
54248;BME280;40161;39.768;2.722;2024-02-26T04:51:52;99717.06;;;17.02;64.31
54248;BME280;40161;39.768;2.722;2024-02-26T04:54:19;99727.63;;;17.07;64.01
54248;BME280;40161;39.768;2.722;2024-02-26T04:56:44;99733.88;;;17.12;64.30
54248;BME280;40161;39.768;2.722;2024-02-26T04:59:10;99670.63;;;17.06;63.97
54248;BME280;40161;39.768;2.722;2024-02-26T05:01:36;99732.22;;;17.14;63.68
54248;BME280;40161;39.768;2.722;2024-02-26T05:04:02;99695.34;;;16.84;64.46
54248;BME280;40161;39.768;2.722;2024-02-26T05:06:29;99750.13;;;17.09;64.81
54248;BME280;40161;39.768;2.722;2024-02-26T05:08:54;99711.06;;;16.71;65.39
54248;BME280;40161;39.768;2.722;2024-02-26T05:11:20;99699.66;;;16.69;65.85
54248;BME280;40161;39.768;2.722;2024-02-26T05:13:45;99699.75;;;16.66;66.21
54248;BME280;40161;39.768;2.722;2024-02-26T05:16:11;99664.94;;;16.48;66.06
54248;BME280;40161;39.768;2.722;2024-02-26T05:18:37;99693.41;;;16.65;65.84
54248;BME280;40161;39.768;2.722;2024-02-26T05:21:03;99677.72;;;16.42;66.66
54248;BME280;40161;39.768;2.722;2024-02-26T05:23:28;99715.91;;;16.67;66.94
54248;BME280;40161;39.768;2.722;2024-02-26T05:25:54;99699.03;;;16.61;67.05
54248;BME280;40161;39.768;2.722;2024-02-26T05:28:20;99723.44;;;16.67;67.42
54248;BME280;40161;39.768;2.722;2024-02-26T05:30:46;99731.53;;;16.77;67.22
54248;BME280;40161;39.768;2.722;2024-02-26T05:33:12;99748.16;;;16.77;66.86
54248;BME280;40161;39.768;2.722;2024-02-26T05:35:37;99751.28;;;16.79;67.96
54248;BME280;40161;39.768;2.722;2024-02-26T05:38:03;99748.72;;;16.69;67.92
54248;BME280;40161;39.768;2.722;2024-02-26T05:40:29;99730.75;;;16.41;69.25
54248;BME280;40161;39.768;2.722;2024-02-26T05:42:55;99747.06;;;16.71;67.95
54248;BME280;40161;39.768;2.722;2024-02-26T05:45:21;99749.06;;;16.71;68.07
54248;BME280;40161;39.768;2.722;2024-02-26T05:47:47;99741.97;;;16.70;68.59
54248;BME280;40161;39.768;2.722;2024-02-26T05:50:13;99731.13;;;16.43;69.46
54248;BME280;40161;39.768;2.722;2024-02-26T05:52:40;99755.63;;;16.60;69.50
54248;BME280;40161;39.768;2.722;2024-02-26T05:55:05;99703.38;;;16.26;69.10
54248;BME280;40161;39.768;2.722;2024-02-26T05:57:33;99740.28;;;16.40;69.51
54248;BME280;40161;39.768;2.722;2024-02-26T05:59:59;99768.09;;;16.52;70.10
54248;BME280;40161;39.768;2.722;2024-02-26T06:02:32;99755.00;;;16.17;71.61
54248;BME280;40161;39.768;2.722;2024-02-26T06:04:58;99753.75;;;16.21;70.65
54248;BME280;40161;39.768;2.722;2024-02-26T06:07:23;99771.94;;;16.38;71.20
54248;BME280;40161;39.768;2.722;2024-02-26T06:09:49;99783.81;;;16.39;71.64
54248;BME280;40161;39.768;2.722;2024-02-26T06:12:15;99808.03;;;16.35;71.56
54248;BME280;40161;39.768;2.722;2024-02-26T06:14:42;99809.63;;;16.52;70.70
54248;BME280;40161;39.768;2.722;2024-02-26T06:17:07;99789.06;;;16.33;71.13
54248;BME280;40161;39.768;2.722;2024-02-26T06:19:33;99795.09;;;16.28;71.23
54248;BME280;40161;39.768;2.722;2024-02-26T06:21:58;99806.22;;;16.45;70.92
54248;BME280;40161;39.768;2.722;2024-02-26T06:24:24;99808.56;;;16.46;70.86
54248;BME280;40161;39.768;2.722;2024-02-26T06:26:49;99773.97;;;16.18;70.99
54248;BME280;40161;39.768;2.722;2024-02-26T06:29:15;99805.41;;;16.28;71.08
54248;BME280;40161;39.768;2.722;2024-02-26T06:31:41;99789.34;;;16.19;71.84
54248;BME280;40161;39.768;2.722;2024-02-26T06:34:06;99811.91;;;16.37;71.87
54248;BME280;40161;39.768;2.722;2024-02-26T06:36:32;99804.75;;;16.40;71.76
54248;BME280;40161;39.768;2.722;2024-02-26T06:38:58;99791.28;;;16.22;72.06
54248;BME280;40161;39.768;2.722;2024-02-26T06:41:24;99777.66;;;16.11;72.60
54248;BME280;40161;39.768;2.722;2024-02-26T06:43:55;99785.03;;;16.18;72.82
54248;BME280;40161;39.768;2.722;2024-02-26T06:46:22;99790.28;;;16.12;73.05
54248;BME280;40161;39.768;2.722;2024-02-26T06:48:51;99793.41;;;16.34;72.80
54248;BME280;40161;39.768;2.722;2024-02-26T06:51:16;99808.22;;;16.44;71.91
54248;BME280;40161;39.768;2.722;2024-02-26T06:53:42;99798.34;;;16.43;72.93
54248;BME280;40161;39.768;2.722;2024-02-26T06:56:07;99782.44;;;16.27;73.20
54248;BME280;40161;39.768;2.722;2024-02-26T06:58:33;99812.97;;;16.44;71.96
54248;BME280;40161;39.768;2.722;2024-02-26T07:00:58;99808.13;;;16.48;71.80
54248;BME280;40161;39.768;2.722;2024-02-26T07:03:24;99798.78;;;16.42;72.44
54248;BME280;40161;39.768;2.722;2024-02-26T07:05:51;99790.03;;;16.43;73.40
54248;BME280;40161;39.768;2.722;2024-02-26T07:08:17;99775.28;;;16.30;74.14
54248;BME280;40161;39.768;2.722;2024-02-26T07:10:43;99798.66;;;16.29;75.07
54248;BME280;40161;39.768;2.722;2024-02-26T07:13:09;99772.81;;;16.16;75.56
54248;BME280;40161;39.768;2.722;2024-02-26T07:15:34;99811.06;;;16.21;76.64
54248;BME280;40161;39.768;2.722;2024-02-26T07:18:00;99810.34;;;16.17;76.84
54248;BME280;40161;39.768;2.722;2024-02-26T07:20:31;99835.97;;;16.21;77.60
54248;BME280;40161;39.768;2.722;2024-02-26T07:22:57;99832.88;;;16.19;77.69
54248;BME280;40161;39.768;2.722;2024-02-26T07:25:23;99807.53;;;16.00;79.47
54248;BME280;40161;39.768;2.722;2024-02-26T07:27:52;99841.16;;;16.19;82.65
54248;BME280;40161;39.768;2.722;2024-02-26T07:30:18;99846.94;;;16.28;85.42
54248;BME280;40161;39.768;2.722;2024-02-26T07:32:44;99831.09;;;16.08;86.63
54248;BME280;40161;39.768;2.722;2024-02-26T07:35:09;99809.38;;;15.87;88.98
54248;BME280;40161;39.768;2.722;2024-02-26T07:37:35;99814.47;;;15.65;91.43
54248;BME280;40161;39.768;2.722;2024-02-26T07:40:01;99806.16;;;15.65;92.08
54248;BME280;40161;39.768;2.722;2024-02-26T07:42:26;99821.56;;;15.89;93.45
54248;BME280;40161;39.768;2.722;2024-02-26T07:44:52;99793.75;;;15.77;96.39
54248;BME280;40161;39.768;2.722;2024-02-26T07:47:18;99792.41;;;15.61;97.89
54248;BME280;40161;39.768;2.722;2024-02-26T07:49:44;99786.47;;;15.39;100.00
54248;BME280;40161;39.768;2.722;2024-02-26T07:52:10;99805.47;;;15.84;100.00
54248;BME280;40161;39.768;2.722;2024-02-26T07:54:36;99807.44;;;15.84;100.00
54248;BME280;40161;39.768;2.722;2024-02-26T07:57:01;99808.28;;;15.57;100.00
54248;BME280;40161;39.768;2.722;2024-02-26T07:59:31;99785.09;;;15.51;100.00
54248;BME280;40161;39.768;2.722;2024-02-26T08:01:56;99840.72;;;15.80;100.00
54248;BME280;40161;39.768;2.722;2024-02-26T08:04:22;99800.66;;;15.41;100.00
54248;BME280;40161;39.768;2.722;2024-02-26T08:06:47;99825.53;;;15.65;100.00
54248;BME280;40161;39.768;2.722;2024-02-26T08:09:13;99820.06;;;15.61;100.00
54248;BME280;40161;39.768;2.722;2024-02-26T08:11:39;99783.34;;;15.14;100.00
54248;BME280;40161;39.768;2.722;2024-02-26T08:14:08;99828.25;;;15.45;100.00
54248;BME280;40161;39.768;2.722;2024-02-26T08:16:34;99751.44;;;15.09;100.00
54248;BME280;40161;39.768;2.722;2024-02-26T08:19:00;99817.59;;;15.43;100.00
54248;BME280;40161;39.768;2.722;2024-02-26T08:21:25;99829.09;;;15.42;100.00
54248;BME280;40161;39.768;2.722;2024-02-26T08:23:51;99849.97;;;15.19;100.00
54248;BME280;40161;39.768;2.722;2024-02-26T08:26:16;99816.47;;;15.17;100.00
54248;BME280;40161;39.768;2.722;2024-02-26T08:28:42;99827.94;;;15.16;100.00
54248;BME280;40161;39.768;2.722;2024-02-26T08:31:08;99774.25;;;14.90;100.00
54248;BME280;40161;39.768;2.722;2024-02-26T08:33:33;99815.50;;;15.04;100.00
54248;BME280;40161;39.768;2.722;2024-02-26T08:36:04;99821.63;;;15.15;100.00
54248;BME280;40161;39.768;2.722;2024-02-26T08:38:30;99832.63;;;15.19;100.00
54248;BME280;40161;39.768;2.722;2024-02-26T08:40:56;99808.38;;;15.03;100.00
54248;BME280;40161;39.768;2.722;2024-02-26T08:43:21;99784.00;;;14.98;100.00
54248;BME280;40161;39.768;2.722;2024-02-26T08:45:47;99791.50;;;14.98;100.00
54248;BME280;40161;39.768;2.722;2024-02-26T08:48:12;99823.50;;;15.22;100.00
54248;BME280;40161;39.768;2.722;2024-02-26T08:50:38;99823.22;;;15.13;100.00
54248;BME280;40161;39.768;2.722;2024-02-26T08:53:03;99842.94;;;15.15;100.00
54248;BME280;40161;39.768;2.722;2024-02-26T08:55:29;99814.25;;;15.32;100.00
54248;BME280;40161;39.768;2.722;2024-02-26T08:57:55;99821.22;;;15.40;100.00
54248;BME280;40161;39.768;2.722;2024-02-26T09:00:21;99811.66;;;15.45;100.00
54248;BME280;40161;39.768;2.722;2024-02-26T09:02:49;99785.38;;;15.57;100.00
54248;BME280;40161;39.768;2.722;2024-02-26T09:05:15;99801.06;;;15.63;100.00
54248;BME280;40161;39.768;2.722;2024-02-26T09:07:41;99789.84;;;15.27;100.00
54248;BME280;40161;39.768;2.722;2024-02-26T09:10:07;99765.50;;;14.95;100.00
54248;BME280;40161;39.768;2.722;2024-02-26T09:12:37;99764.78;;;14.91;100.00
54248;BME280;40161;39.768;2.722;2024-02-26T09:15:03;99799.88;;;15.17;100.00
54248;BME280;40161;39.768;2.722;2024-02-26T09:17:29;99786.03;;;14.94;100.00
54248;BME280;40161;39.768;2.722;2024-02-26T09:19:55;99802.66;;;15.17;100.00
54248;BME280;40161;39.768;2.722;2024-02-26T09:22:20;99814.31;;;15.29;100.00
54248;BME280;40161;39.768;2.722;2024-02-26T09:24:46;99800.84;;;15.07;100.00
54248;BME280;40161;39.768;2.722;2024-02-26T09:27:12;99822.00;;;15.41;100.00
54248;BME280;40161;39.768;2.722;2024-02-26T09:29:37;99820.63;;;15.53;100.00
54248;BME280;40161;39.768;2.722;2024-02-26T09:32:03;99797.22;;;15.34;100.00
54248;BME280;40161;39.768;2.722;2024-02-26T09:34:29;99834.53;;;15.73;100.00
54248;BME280;40161;39.768;2.722;2024-02-26T09:36:55;99823.25;;;15.60;100.00
54248;BME280;40161;39.768;2.722;2024-02-26T09:39:20;99799.63;;;15.55;100.00
54248;BME280;40161;39.768;2.722;2024-02-26T09:41:47;99827.28;;;15.79;100.00
54248;BME280;40161;39.768;2.722;2024-02-26T09:44:18;99822.69;;;15.92;100.00
54248;BME280;40161;39.768;2.722;2024-02-26T09:46:45;99784.88;;;15.85;100.00
54248;BME280;40161;39.768;2.722;2024-02-26T09:49:11;99784.16;;;15.81;100.00
54248;BME280;40161;39.768;2.722;2024-02-26T09:51:38;99778.78;;;15.74;100.00
54248;BME280;40161;39.768;2.722;2024-02-26T09:54:07;99791.25;;;15.82;100.00
54248;BME280;40161;39.768;2.722;2024-02-26T09:56:36;99766.03;;;15.80;100.00
54248;BME280;40161;39.768;2.722;2024-02-26T09:59:06;99749.75;;;15.82;100.00
54248;BME280;40161;39.768;2.722;2024-02-26T10:01:36;99805.47;;;16.04;100.00
54248;BME280;40161;39.768;2.722;2024-02-26T10:04:04;99795.09;;;15.88;100.00
54248;BME280;40161;39.768;2.722;2024-02-26T10:06:30;99806.22;;;15.85;100.00
54248;BME280;40161;39.768;2.722;2024-02-26T10:08:56;99795.31;;;15.78;100.00
54248;BME280;40161;39.768;2.722;2024-02-26T10:11:24;99788.28;;;15.73;100.00
54248;BME280;40161;39.768;2.722;2024-02-26T10:13:50;99796.31;;;15.87;100.00
54248;BME280;40161;39.768;2.722;2024-02-26T10:16:16;99785.53;;;15.73;100.00
54248;BME280;40161;39.768;2.722;2024-02-26T10:18:49;99797.53;;;15.63;100.00
54248;BME280;40161;39.768;2.722;2024-02-26T10:21:21;99769.78;;;15.23;100.00
54248;BME280;40161;39.768;2.722;2024-02-26T10:23:47;99818.81;;;14.92;100.00
54248;BME280;40161;39.768;2.722;2024-02-26T10:26:14;99747.50;;;14.29;100.00
54248;BME280;40161;39.768;2.722;2024-02-26T10:28:42;99781.69;;;14.39;100.00
54248;BME280;40161;39.768;2.722;2024-02-26T10:31:09;99776.44;;;14.14;100.00
54248;BME280;40161;39.768;2.722;2024-02-26T10:33:36;99809.03;;;14.26;100.00
54248;BME280;40161;39.768;2.722;2024-02-26T10:36:05;99797.63;;;13.48;100.00
54248;BME280;40161;39.768;2.722;2024-02-26T10:38:32;99809.44;;;13.52;100.00
54248;BME280;40161;39.768;2.722;2024-02-26T10:40:58;99846.03;;;13.57;100.00
54248;BME280;40161;39.768;2.722;2024-02-26T10:43:27;99861.56;;;13.33;100.00
54248;BME280;40161;39.768;2.722;2024-02-26T10:45:55;99855.09;;;12.98;100.00
54248;BME280;40161;39.768;2.722;2024-02-26T10:48:21;99852.13;;;12.67;100.00
54248;BME280;40161;39.768;2.722;2024-02-26T10:50:47;99876.81;;;12.81;100.00
54248;BME280;40161;39.768;2.722;2024-02-26T10:53:16;99889.06;;;12.66;100.00
54248;BME280;40161;39.768;2.722;2024-02-26T10:55:49;99899.34;;;12.55;100.00
54248;BME280;40161;39.768;2.722;2024-02-26T10:58:18;99885.63;;;12.48;100.00
54248;BME280;40161;39.768;2.722;2024-02-26T11:00:45;99881.38;;;12.29;100.00
54248;BME280;40161;39.768;2.722;2024-02-26T11:03:13;99892.72;;;12.34;100.00
54248;BME280;40161;39.768;2.722;2024-02-26T11:05:41;99857.06;;;12.02;100.00
54248;BME280;40161;39.768;2.722;2024-02-26T11:08:08;99855.88;;;12.00;100.00
54248;BME280;40161;39.768;2.722;2024-02-26T11:10:35;99872.78;;;12.09;100.00
54248;BME280;40161;39.768;2.722;2024-02-26T11:13:02;99788.41;;;11.56;100.00
54248;BME280;40161;39.768;2.722;2024-02-26T11:15:30;99853.53;;;12.05;100.00
54248;BME280;40161;39.768;2.722;2024-02-26T11:17:59;99850.38;;;12.00;100.00
54248;BME280;40161;39.768;2.722;2024-02-26T11:20:28;99874.69;;;12.26;100.00
54248;BME280;40161;39.768;2.722;2024-02-26T11:22:53;99873.16;;;12.18;100.00
54248;BME280;40161;39.768;2.722;2024-02-26T11:25:19;99867.63;;;12.11;100.00
54248;BME280;40161;39.768;2.722;2024-02-26T11:27:49;99852.31;;;12.14;100.00
54248;BME280;40161;39.768;2.722;2024-02-26T11:30:17;99831.47;;;12.23;100.00
54248;BME280;40161;39.768;2.722;2024-02-26T11:32:47;99820.66;;;12.65;100.00
54248;BME280;40161;39.768;2.722;2024-02-26T11:35:14;99818.78;;;12.47;100.00
54248;BME280;40161;39.768;2.722;2024-02-26T11:37:51;99836.50;;;12.43;100.00
54248;BME280;40161;39.768;2.722;2024-02-26T11:40:18;99850.69;;;12.34;100.00
54248;BME280;40161;39.768;2.722;2024-02-26T11:42:44;99857.16;;;12.79;100.00
54248;BME280;40161;39.768;2.722;2024-02-26T11:48:04;99838.09;;;13.06;100.00
54248;BME280;40161;39.768;2.722;2024-02-26T11:50:39;99835.91;;;12.83;100.00
54248;BME280;40161;39.768;2.722;2024-02-26T11:53:46;99858.00;;;12.66;100.00
54248;BME280;40161;39.768;2.722;2024-02-26T11:58:47;99798.13;;;12.84;100.00
54248;BME280;40161;39.768;2.722;2024-02-26T12:01:40;99819.97;;;13.13;100.00
54248;BME280;40161;39.768;2.722;2024-02-26T12:07:02;99783.97;;;13.38;100.00
54248;BME280;40161;39.768;2.722;2024-02-26T12:09:38;99733.03;;;13.08;100.00
54248;BME280;40161;39.768;2.722;2024-02-26T12:12:08;99746.44;;;13.06;100.00
54248;BME280;40161;39.768;2.722;2024-02-26T12:14:50;99765.03;;;12.91;100.00
54248;BME280;40161;39.768;2.722;2024-02-26T12:17:25;99767.41;;;12.89;100.00
54248;BME280;40161;39.768;2.722;2024-02-26T12:19:51;99739.31;;;12.60;100.00
54248;BME280;40161;39.768;2.722;2024-02-26T12:22:19;99760.88;;;12.65;100.00
54248;BME280;40161;39.768;2.722;2024-02-26T12:24:44;99774.59;;;12.72;100.00
54248;BME280;40161;39.768;2.722;2024-02-26T12:27:11;99774.22;;;12.74;100.00
54248;BME280;40161;39.768;2.722;2024-02-26T12:29:37;99749.44;;;12.74;100.00
54248;BME280;40161;39.768;2.722;2024-02-26T12:32:04;99759.88;;;12.97;100.00
54248;BME280;40161;39.768;2.722;2024-02-26T12:34:32;99728.34;;;12.53;100.00
54248;BME280;40161;39.768;2.722;2024-02-26T12:36:58;99703.72;;;12.87;100.00
54248;BME280;40161;39.768;2.722;2024-02-26T12:39:24;99700.09;;;12.97;100.00
54248;BME280;40161;39.768;2.722;2024-02-26T12:41:49;99736.50;;;13.16;100.00
54248;BME280;40161;39.768;2.722;2024-02-26T12:44:24;99716.34;;;12.81;100.00
54248;BME280;40161;39.768;2.722;2024-02-26T12:46:50;99685.03;;;13.09;100.00
54248;BME280;40161;39.768;2.722;2024-02-26T12:49:16;99729.44;;;13.15;100.00
54248;BME280;40161;39.768;2.722;2024-02-26T12:51:44;99702.56;;;12.85;100.00
54248;BME280;40161;39.768;2.722;2024-02-26T12:54:10;99713.63;;;13.22;100.00
54248;BME280;40161;39.768;2.722;2024-02-26T12:56:36;99690.03;;;13.21;100.00
54248;BME280;40161;39.768;2.722;2024-02-26T12:59:02;99725.41;;;13.26;100.00
54248;BME280;40161;39.768;2.722;2024-02-26T13:01:29;99683.81;;;12.65;100.00